Time;durP1;ratioP1;P1;durP2;ratioP2;P2;SDS_P1;SDS_P2;PMS_P1;PMS_P2;Temp;Humidity;BMP_temperature;BMP_pressure;BME280_temperature;BME280_humidity;BME280_pressure;Samples;Min_cycle;Max_cycle;Signal;HPM_P1;HPM_P2
2021/05/05 00:02:02;;;;;;;1999.90;999.90;;;14.90;99.90;;;;;;5113650;28;20250;-49
2021/05/05 00:04:29;;;;;;;1999.90;999.90;;;14.90;99.90;;;;;;5113802;28;20179;-53
2021/05/05 00:06:58;;;;;;;1999.90;999.90;;;14.90;99.90;;;;;;5113679;28;20640;-56
2021/05/05 00:09:25;;;;;;;1999.90;999.90;;;14.90;99.90;;;;;;5113646;28;20163;-57
2021/05/05 00:11:53;;;;;;;1999.90;999.90;;;15.00;99.90;;;;;;5113595;28;20250;-58
2021/05/05 00:14:20;;;;;;;1999.90;999.90;;;15.00;99.90;;;;;;5113577;28;20173;-52
2021/05/05 00:16:48;;;;;;;1999.90;999.90;;;14.90;99.90;;;;;;5113574;28;20191;-49
2021/05/05 00:19:15;;;;;;;1999.90;999.90;;;15.00;99.90;;;;;;5113640;28;20163;-55
2021/05/05 00:21:42;;;;;;;1999.90;999.90;;;14.90;99.90;;;;;;5113339;28;20257;-55
2021/05/05 00:24:11;;;;;;;1999.90;999.90;;;14.90;99.90;;;;;;5113333;28;20171;-58
2021/05/05 00:26:38;;;;;;;1999.90;999.90;;;14.90;99.90;;;;;;5112461;28;20638;-57
2021/05/05 00:29:05;;;;;;;1999.90;999.90;;;14.90;99.90;;;;;;5113349;28;20514;-58
2021/05/05 00:31:33;;;;;;;1999.90;999.90;;;15.00;99.90;;;;;;5113345;28;20216;-56
2021/05/05 00:33:59;;;;;;;1999.90;999.90;;;15.00;99.90;;;;;;5113106;28;20179;-45
2021/05/05 00:36:27;;;;;;;1999.90;999.90;;;15.10;99.90;;;;;;5113000;28;20558;-45
2021/05/05 00:38:54;;;;;;;1999.90;999.90;;;15.00;99.90;;;;;;5112929;28;20171;-51
2021/05/05 00:41:21;;;;;;;1999.90;999.90;;;15.10;99.90;;;;;;5113023;28;20220;-47
2021/05/05 00:43:48;;;;;;;1999.90;999.90;;;15.00;99.90;;;;;;5113217;28;20167;-56
2021/05/05 00:46:15;;;;;;;1999.90;999.90;;;15.00;99.90;;;;;;5113177;28;20529;-47
2021/05/05 00:48:42;;;;;;;1999.90;999.90;;;15.00;99.90;;;;;;5113127;28;20246;-54
2021/05/05 00:51:09;;;;;;;1999.90;999.90;;;15.10;99.90;;;;;;5113014;28;20171;-46
2021/05/05 00:53:39;;;;;;;1999.90;999.90;;;15.10;99.90;;;;;;5112855;28;20676;-52
2021/05/05 00:56:06;;;;;;;1999.90;999.90;;;15.10;99.90;;;;;;5112867;28;20214;-50
2021/05/05 00:58:35;;;;;;;1999.90;999.90;;;15.10;99.90;;;;;;5113020;28;20163;-47
2021/05/05 01:01:03;;;;;;;1999.90;999.90;;;15.00;99.90;;;;;;5112938;28;20316;-55
2021/05/05 01:03:29;;;;;;;1999.90;999.90;;;15.00;99.90;;;;;;5112948;28;20581;-51
2021/05/05 01:05:57;;;;;;;1999.90;999.90;;;15.00;99.90;;;;;;5112951;28;20187;-49
2021/05/05 01:08:24;;;;;;;1999.90;999.90;;;15.00;99.90;;;;;;5112844;28;20271;-45
2021/05/05 01:10:51;;;;;;;1999.90;999.90;;;15.00;99.90;;;;;;5113019;28;20579;-57
2021/05/05 01:13:18;;;;;;;1999.90;999.90;;;15.00;99.90;;;;;;5112928;28;20175;-55
2021/05/05 01:15:45;;;;;;;1999.90;999.90;;;15.00;99.90;;;;;;5112785;28;20271;-49
2021/05/05 01:18:12;;;;;;;1999.90;999.90;;;14.90;99.90;;;;;;5112816;28;20232;-46
2021/05/05 01:20:39;;;;;;;1999.90;999.90;;;15.00;99.90;;;;;;5112804;28;20171;-54
2021/05/05 01:23:07;;;;;;;1999.90;999.90;;;15.00;99.90;;;;;;5112730;28;20175;-51
2021/05/05 01:25:34;;;;;;;1999.90;999.90;;;15.00;99.90;;;;;;5112833;28;20175;-47
2021/05/05 01:28:01;;;;;;;1999.90;999.90;;;15.00;99.90;;;;;;5112660;28;20614;-54
2021/05/05 01:30:29;;;;;;;1999.90;999.90;;;15.00;99.90;;;;;;5112641;28;20568;-53
2021/05/05 01:32:56;;;;;;;1999.90;999.90;;;15.10;99.90;;;;;;5112691;28;20175;-46
2021/05/05 01:35:27;;;;;;;1999.90;999.90;;;15.20;99.90;;;;;;5112755;28;20258;-44
2021/05/05 01:37:54;;;;;;;1999.90;999.90;;;15.20;99.90;;;;;;5114243;28;20542;-48
2021/05/05 01:40:28;;;;;;;1999.90;999.90;;;15.10;99.90;;;;;;5116607;28;20530;-55
2021/05/05 01:42:56;;;;;;;1999.90;999.90;;;15.20;99.90;;;;;;5116512;28;20163;-48
2021/05/05 01:45:23;;;;;;;1999.90;999.90;;;15.20;99.90;;;;;;5116324;28;20221;-50
2021/05/05 01:47:55;;;;;;;1999.90;999.90;;;15.30;99.90;;;;;;5116234;28;20182;-57
2021/05/05 01:50:23;;;;;;;1999.90;999.90;;;15.30;99.90;;;;;;5116309;28;20247;-49
2021/05/05 01:52:50;;;;;;;1999.90;999.90;;;15.20;99.90;;;;;;5116203;28;20278;-56
2021/05/05 01:55:17;;;;;;;1999.90;999.90;;;15.20;99.90;;;;;;5115838;28;20685;-52
2021/05/05 01:57:44;;;;;;;1999.90;999.90;;;15.20;99.90;;;;;;5115980;28;20267;-45
2021/05/05 02:00:14;;;;;;;1999.90;999.90;;;15.30;99.90;;;;;;5115857;28;20178;-53
2021/05/05 02:02:41;;;;;;;1999.90;999.90;;;15.30;99.90;;;;;;5115752;28;20167;-48
2021/05/05 02:05:09;;;;;;;1999.90;999.90;;;15.30;99.90;;;;;;5115593;28;20231;-54
2021/05/05 02:07:37;;;;;;;1999.90;999.90;;;15.20;99.90;;;;;;5115795;28;20289;-51
2021/05/05 02:10:09;;;;;;;1999.90;999.90;;;15.30;99.90;;;;;;5115721;28;20200;-48
2021/05/05 02:12:36;;;;;;;1999.90;999.90;;;15.20;99.90;;;;;;5115890;28;20179;-55
2021/05/05 02:15:07;;;;;;;1999.90;999.90;;;15.20;99.90;;;;;;5115718;28;20174;-54
2021/05/05 02:17:36;;;;;;;1999.90;999.90;;;15.20;99.90;;;;;;5115777;28;20206;-48
2021/05/05 02:20:06;;;;;;;1999.90;999.90;;;15.10;99.90;;;;;;5115519;28;20316;-48
2021/05/05 02:22:32;;;;;;;1999.90;999.90;;;15.10;99.90;;;;;;5097213;28;20636;-47
2021/05/05 02:24:59;;;;;;;1999.90;999.90;;;15.10;99.90;;;;;;5115435;28;20174;-44
2021/05/05 02:27:27;;;;;;;1999.90;999.90;;;15.10;99.90;;;;;;5115554;28;20256;-48
2021/05/05 02:29:54;;;;;;;1999.90;999.90;;;15.00;99.90;;;;;;5115398;28;20159;-55
2021/05/05 02:32:24;;;;;;;1999.90;999.90;;;15.00;99.90;;;;;;5115256;28;20162;-52
2021/05/05 02:34:51;;;;;;;1999.90;999.90;;;15.10;99.90;;;;;;5115265;28;20247;-52
2021/05/05 02:37:18;;;;;;;1999.90;999.90;;;15.00;99.90;;;;;;5115086;28;20248;-55
2021/05/05 02:39:46;;;;;;;1999.90;999.90;;;15.00;99.90;;;;;;5115145;28;20170;-55
2021/05/05 02:42:18;;;;;;;1999.90;999.90;;;15.10;99.90;;;;;;5114990;28;20200;-47
2021/05/05 02:44:48;;;;;;;1999.90;999.90;;;15.10;99.90;;;;;;5114970;28;20168;-55
2021/05/05 02:47:16;;;;;;;1999.90;999.90;;;15.10;99.90;;;;;;5115077;28;20183;-58
2021/05/05 02:49:43;;;;;;;1999.90;999.90;;;15.20;99.90;;;;;;5114075;28;20566;-52
2021/05/05 02:52:10;;;;;;;1999.90;999.90;;;15.20;99.90;;;;;;5115096;28;20175;-53
2021/05/05 02:54:37;;;;;;;1999.90;999.90;;;15.20;99.90;;;;;;5093113;28;20281;-57
2021/05/05 02:57:05;;;;;;;1999.90;999.90;;;15.10;99.90;;;;;;5094548;28;20287;-51
2021/05/05 02:59:33;;;;;;;1999.90;999.90;;;15.10;99.90;;;;;;5094593;28;20164;-47
2021/05/05 03:02:00;;;;;;;1999.90;999.90;;;15.00;99.90;;;;;;5094690;28;20172;-52
2021/05/05 03:04:27;;;;;;;1999.90;999.90;;;15.10;99.90;;;;;;5094523;28;20254;-49
2021/05/05 03:06:55;;;;;;;1999.90;999.90;;;15.10;99.90;;;;;;5094488;28;20176;-51
2021/05/05 03:09:27;;;;;;;1999.90;999.90;;;15.10;99.90;;;;;;5094421;28;20164;-55
2021/05/05 03:12:03;;;;;;;1999.90;999.90;;;15.10;99.90;;;;;;5094401;28;20166;-54
2021/05/05 03:14:30;;;;;;;1999.90;999.90;;;15.10;99.90;;;;;;5094922;28;20581;-56
2021/05/05 03:17:00;;;;;;;1999.90;999.90;;;15.10;99.90;;;;;;5094153;28;20204;-52
2021/05/05 03:19:27;;;;;;;1999.90;999.90;;;15.00;99.90;;;;;;5094180;28;20657;-53
2021/05/05 03:21:55;;;;;;;1999.90;999.90;;;15.10;99.90;;;;;;5094074;28;20198;-57
2021/05/05 03:24:22;;;;;;;1999.90;999.90;;;15.10;99.90;;;;;;5094149;28;20160;-51
2021/05/05 03:26:48;;;;;;;1999.90;999.90;;;15.20;99.90;;;;;;5094126;28;20635;-52
2021/05/05 03:29:16;;;;;;;1999.90;999.90;;;15.10;99.90;;;;;;5094034;28;20160;-58
2021/05/05 03:31:44;;;;;;;1999.90;999.90;;;15.10;99.90;;;;;;5093951;28;20567;-58
2021/05/05 03:34:11;;;;;;;1999.90;999.90;;;15.10;99.90;;;;;;5093879;28;20255;-55
2021/05/05 03:36:38;;;;;;;1999.90;999.90;;;15.10;99.90;;;;;;5093797;28;20192;-52
2021/05/05 03:39:06;;;;;;;1999.90;999.90;;;15.00;99.90;;;;;;5093999;28;20220;-55
2021/05/05 03:41:33;;;;;;;1999.90;999.90;;;15.00;99.90;;;;;;5094143;28;20176;-56
2021/05/05 03:44:00;;;;;;;1999.90;999.90;;;15.00;99.90;;;;;;5094058;28;20207;-55
2021/05/05 03:46:27;;;;;;;1999.90;999.90;;;14.90;99.90;;;;;;5093653;28;20179;-52
2021/05/05 03:48:54;;;;;;;1999.90;999.90;;;14.90;99.90;;;;;;5093699;28;20167;-51
2021/05/05 03:51:21;;;;;;;1999.90;999.90;;;15.00;99.90;;;;;;5093629;28;20689;-54
2021/05/05 03:53:48;;;;;;;1999.90;999.90;;;14.90;99.90;;;;;;5100743;28;20222;-51
2021/05/05 03:56:15;;;;;;;1999.90;999.90;;;14.90;99.90;;;;;;5113870;28;20676;-54
2021/05/05 03:58:41;;;;;;;1999.90;999.90;;;14.90;99.90;;;;;;5113882;28;20571;-54
2021/05/05 04:01:08;;;;;;;1999.90;999.90;;;14.90;99.90;;;;;;5095682;28;20171;-49
2021/05/05 04:03:35;;;;;;;1999.90;999.90;;;14.90;99.90;;;;;;5113719;28;20568;-52
2021/05/05 04:06:02;;;;;;;1999.90;999.90;;;14.90;99.90;;;;;;5095506;28;20179;-50
2021/05/05 04:08:29;;;;;;;1999.90;999.90;;;14.90;99.90;;;;;;5113721;28;20250;-45
2021/05/05 04:10:56;;;;;;;1999.90;999.90;;;14.90;99.90;;;;;;5113639;28;20198;-46
2021/05/05 04:13:23;;;;;;;1999.90;999.90;;;15.00;99.90;;;;;;5113616;28;20167;-49
2021/05/05 04:15:50;;;;;;;1999.90;999.90;;;15.00;99.90;;;;;;5113478;28;20199;-55
2021/05/05 04:18:17;;;;;;;1999.90;999.90;;;15.00;99.90;;;;;;5113510;28;20223;-50
2021/05/05 04:20:44;;;;;;;1999.90;999.90;;;15.00;99.90;;;;;;5113383;28;20155;-52
2021/05/05 04:23:11;;;;;;;1999.90;999.90;;;15.10;99.90;;;;;;5095071;28;20516;-50
2021/05/05 04:25:38;;;;;;;1999.90;999.90;;;15.00;99.90;;;;;;5113524;28;20194;-48
2021/05/05 04:28:05;;;;;;;1999.90;999.90;;;15.10;99.90;;;;;;5113523;28;20167;-55
2021/05/05 04:30:32;;;;;;;1999.90;999.90;;;15.10;99.90;;;;;;5113379;28;20175;-56
2021/05/05 04:32:59;;;;;;;1999.90;999.90;;;15.10;99.90;;;;;;5113178;28;20637;-48
2021/05/05 04:35:26;;;;;;;1999.90;999.90;;;15.10;99.90;;;;;;5113053;28;20179;-50
2021/05/05 04:37:52;;;;;;;1999.90;999.90;;;15.00;99.90;;;;;;5113284;28;20167;-58
2021/05/05 04:40:19;;;;;;;1999.90;999.90;;;14.90;99.90;;;;;;5113244;28;20198;-51
2021/05/05 04:42:46;;;;;;;1999.90;999.90;;;14.90;99.90;;;;;;5113098;28;20193;-56
2021/05/05 04:45:13;;;;;;;1999.90;999.90;;;14.90;99.90;;;;;;5112912;28;20171;-53
2021/05/05 04:47:40;;;;;;;1999.90;999.90;;;14.90;99.90;;;;;;5113035;28;20197;-58
2021/05/05 04:50:10;;;;;;;1999.90;999.90;;;14.90;99.90;;;;;;5112859;28;20175;-49
2021/05/05 04:52:37;;;;;;;1999.90;999.90;;;14.90;99.90;;;;;;5113046;28;20638;-52
2021/05/05 04:55:06;;;;;;;1999.90;999.90;;;15.00;99.90;;;;;;5112504;28;20227;-57
2021/05/05 04:57:34;;;;;;;1999.90;999.90;;;15.00;99.90;;;;;;5094332;28;20210;-54
2021/05/05 05:00:01;;;;;;;1999.90;999.90;;;15.10;99.90;;;;;;5112599;28;20255;-51
2021/05/05 05:02:28;;;;;;;1999.90;999.90;;;15.10;99.90;;;;;;5112604;28;20181;-54
2021/05/05 05:04:54;;;;;;;1999.90;999.90;;;15.10;99.90;;;;;;5112776;28;20224;-50
2021/05/05 05:07:21;;;;;;;1999.90;999.90;;;15.10;99.90;;;;;;5112813;28;20254;-51
2021/05/05 05:09:48;;;;;;;1999.90;999.90;;;15.10;99.90;;;;;;5112714;28;20163;-48
2021/05/05 05:12:15;;;;;;;1999.90;999.90;;;15.10;99.90;;;;;;5113141;28;20232;-50
2021/05/05 05:14:42;;;;;;;1999.90;999.90;;;15.10;99.90;;;;;;5116740;28;20542;-51
2021/05/05 05:17:09;;;;;;;1999.90;999.90;;;15.10;99.90;;;;;;5116642;28;20199;-53
2021/05/05 05:19:36;;;;;;;1999.90;999.90;;;15.10;99.90;;;;;;5116359;28;20622;-51
2021/05/05 05:22:03;;;;;;;1999.90;999.90;;;15.10;99.90;;;;;;5116545;28;20208;-53
2021/05/05 05:24:30;;;;;;;1999.90;999.90;;;15.20;99.90;;;;;;5116473;28;20693;-56
2021/05/05 05:26:57;;;;;;;1999.90;999.90;;;15.20;99.90;;;;;;5116489;28;20164;-51
2021/05/05 05:29:24;;;;;;;1999.90;999.90;;;15.20;99.90;;;;;;5116342;28;20168;-54
2021/05/05 05:31:51;;;;;;;1999.90;999.90;;;15.20;99.90;;;;;;5116357;28;20171;-55
2021/05/05 05:34:18;;;;;;;1999.90;999.90;;;15.30;99.90;;;;;;5116340;28;20167;-51
2021/05/05 05:36:45;;;;;;;1999.90;999.90;;;15.30;99.90;;;;;;5116338;28;20314;-48
2021/05/05 05:39:12;;;;;;;1999.90;999.90;;;15.30;99.90;;;;;;5116424;28;20636;-55
2021/05/05 05:41:38;;;;;;;1999.90;999.90;;;15.30;99.90;;;;;;5116045;28;20163;-54
2021/05/05 05:44:06;;;;;;;1999.90;999.90;;;15.40;99.90;;;;;;5115922;28;20193;-52
2021/05/05 05:46:33;;;;;;;1999.90;999.90;;;15.40;99.90;;;;;;5115806;28;20163;-57
2021/05/05 05:48:59;;;;;;;1999.90;999.90;;;15.40;99.90;;;;;;5115822;28;20185;-48
2021/05/05 05:51:26;;;;;;;1999.90;999.90;;;15.40;99.90;;;;;;5115546;28;20663;-58
2021/05/05 05:53:53;;;;;;;1999.90;999.90;;;15.30;99.90;;;;;;5115513;28;20741;-56
2021/05/05 05:56:20;;;;;;;1999.90;999.90;;;15.20;99.90;;;;;;5115438;28;20210;-49
2021/05/05 05:58:47;;;;;;;1999.90;999.90;;;15.20;99.90;;;;;;5115609;28;20198;-52
2021/05/05 06:01:14;;;;;;;1999.90;999.90;;;15.10;99.90;;;;;;5115836;28;20167;-45
2021/05/05 06:03:40;;;;;;;1999.90;999.90;;;15.10;99.90;;;;;;5115658;28;20171;-53
2021/05/05 06:06:07;;;;;;;1999.90;999.90;;;15.30;99.90;;;;;;5115340;28;20183;-48
2021/05/05 06:08:36;;;;;;;1999.90;999.90;;;15.40;99.90;;;;;;5115636;28;20179;-48
2021/05/05 06:11:04;;;;;;;1999.90;999.90;;;15.40;99.90;;;;;;5114381;28;20275;-51
2021/05/05 06:13:31;;;;;;;1999.90;999.90;;;15.50;99.90;;;;;;5114229;28;20619;-57
2021/05/05 06:15:58;;;;;;;1999.90;999.90;;;15.60;99.90;;;;;;5113480;28;20696;-52
2021/05/05 06:18:26;;;;;;;1999.90;999.90;;;15.70;99.90;;;;;;5114922;28;20159;-59
2021/05/05 06:20:53;;;;;;;1999.90;999.90;;;15.80;99.90;;;;;;5114969;28;20171;-45
2021/05/05 06:23:19;;;;;;;1999.90;999.90;;;15.90;99.90;;;;;;5114985;28;20171;-44
2021/05/05 06:25:46;;;;;;;1999.90;999.90;;;15.90;99.90;;;;;;5113741;28;20167;-57
2021/05/05 06:28:13;;;;;;;1999.90;999.90;;;15.90;99.90;;;;;;5114865;28;20274;-47
2021/05/05 06:30:40;;;;;;;1999.90;999.90;;;16.00;99.90;;;;;;5114702;28;20174;-45
2021/05/05 06:33:06;;;;;;;1999.90;999.90;;;16.10;99.90;;;;;;5114414;28;20213;-44
2021/05/05 06:35:33;;;;;;;1999.90;999.90;;;16.30;99.90;;;;;;5115218;28;20642;-49
2021/05/05 06:38:00;;;;;;;1999.90;999.90;;;16.50;99.90;;;;;;5114873;28;20167;-52
2021/05/05 06:40:26;;;;;;;1999.90;999.90;;;16.70;99.90;;;;;;5114817;28;20167;-51
2021/05/05 06:42:53;;;;;;;1999.90;999.90;;;16.80;99.90;;;;;;5114718;28;20279;-51
2021/05/05 06:45:20;;;;;;;1999.90;999.90;;;16.80;99.90;;;;;;5114969;28;20186;-48
2021/05/05 06:47:47;;;;;;;1999.90;999.90;;;16.90;99.90;;;;;;5114802;28;20163;-52
2021/05/05 06:50:14;;;;;;;1999.90;999.90;;;17.00;99.90;;;;;;5114633;28;20582;-45
2021/05/05 06:52:41;;;;;;;1999.90;999.90;;;17.00;99.90;;;;;;5114383;28;20540;-57
2021/05/05 06:55:11;;;;;;;1999.90;999.90;;;17.20;99.90;;;;;;5114248;28;20758;-46
2021/05/05 06:57:37;;;;;;;1999.90;999.90;;;17.40;99.90;;;;;;5096041;28;20211;-43
2021/05/05 07:00:07;;;;;;;1999.90;999.90;;;17.20;99.90;;;;;;5114365;28;20171;-46
2021/05/05 07:02:34;;;;;;;1999.90;999.90;;;17.30;99.90;;;;;;5115036;28;20192;-43
2021/05/05 07:05:01;;;;;;;1999.90;999.90;;;17.40;99.90;;;;;;5114542;28;20207;-50
2021/05/05 07:07:30;;;;;;;1999.90;999.90;;;17.50;99.90;;;;;;5114589;28;20560;-48
2021/05/05 07:09:58;;;;;;;1999.90;999.90;;;17.60;99.90;;;;;;5114531;28;20163;-47
2021/05/05 07:12:24;;;;;;;1999.90;999.90;;;17.60;99.90;;;;;;5113928;28;20197;-43
2021/05/05 07:14:53;;;;;;;1999.90;999.90;;;17.60;99.90;;;;;;5113635;28;20240;-47
2021/05/05 07:17:20;;;;;;;1999.90;999.90;;;17.40;99.90;;;;;;5112529;28;20205;-47
2021/05/05 07:19:50;;;;;;;1999.90;999.90;;;17.40;99.90;;;;;;5113262;28;20334;-50
2021/05/05 07:22:17;;;;;;;1999.90;999.90;;;17.60;99.90;;;;;;5113977;28;20179;-41
2021/05/05 07:24:44;;;;;;;1999.90;999.90;;;17.70;99.90;;;;;;5114015;28;20202;-46
2021/05/05 07:27:11;;;;;;;1999.90;999.90;;;17.90;99.90;;;;;;5113992;28;20262;-48
2021/05/05 07:29:38;;;;;;;1999.90;999.90;;;18.10;99.90;;;;;;5113958;28;20166;-55
2021/05/05 07:32:05;;;;;;;1999.90;999.90;;;18.30;99.90;;;;;;5113871;28;20170;-47
2021/05/05 07:34:32;;;;;;;1999.90;999.90;;;18.30;99.90;;;;;;5113724;28;20205;-46
2021/05/05 07:37:11;;;;;;;1999.90;999.90;;;18.40;99.90;;;;;;5113238;28;20263;-52
2021/05/05 07:40:03;;;;;;;1999.90;999.90;;;18.40;99.90;;;;;;5113770;28;20147;-44
2021/05/05 07:45:35;;;;;;;1999.90;999.90;;;18.60;99.90;;;;;;5113746;28;20562;-45
2021/05/05 07:48:48;;;;;;;1999.90;999.90;;;18.70;99.90;;;;;;5113172;28;20164;-44
2021/05/05 07:50:53;;;;;;;1999.90;999.90;;;18.70;99.90;;;;;;5102688;28;20561;-45
2021/05/05 07:53:21;;;;;;;1999.90;999.90;;;18.60;99.90;;;;;;5113325;28;20558;-44
2021/05/05 07:55:48;;;;;;;1999.90;999.90;;;18.50;99.90;;;;;;5113411;28;20159;-45
2021/05/05 07:58:14;;;;;;;1999.90;999.90;;;18.30;99.90;;;;;;5113248;28;20175;-45
2021/05/05 08:00:41;;;;;;;1999.90;999.90;;;18.20;99.90;;;;;;5113190;28;20167;-43
2021/05/05 08:03:08;;;;;;;1999.90;999.90;;;18.20;99.90;;;;;;5113214;28;20171;-46
2021/05/05 08:05:35;;;;;;;1999.90;999.90;;;18.30;99.90;;;;;;5113263;28;20167;-45
2021/05/05 08:08:02;;;;;;;1999.90;999.90;;;18.40;99.90;;;;;;5113348;28;20623;-47
2021/05/05 08:10:29;;;;;;;1999.90;999.90;;;18.50;99.90;;;;;;5113132;28;20166;-46
2021/05/05 08:12:56;;;;;;;1999.90;999.90;;;18.60;99.90;;;;;;5113331;28;20171;-55
2021/05/05 08:15:22;;;;;;;1999.90;999.90;;;19.00;99.90;;;;;;5113258;28;20170;-46
2021/05/05 08:17:49;;;;;;;1999.90;999.90;;;19.40;99.10;;;;;;5113012;28;20194;-44
2021/05/05 08:20:16;;;;;;;1999.90;999.90;;;19.70;98.30;;;;;;5113062;28;20163;-46
2021/05/05 08:22:45;;;;;;;1999.90;999.90;;;19.90;97.10;;;;;;5113002;28;20167;-45
2021/05/05 08:25:12;;;;;;;1999.90;999.90;;;20.00;96.20;;;;;;5112968;28;20637;-46
2021/05/05 08:27:39;;;;;;;1999.90;999.90;;;20.00;95.70;;;;;;5112924;28;20170;-44
2021/05/05 08:30:06;;;;;;;1999.90;999.90;;;20.00;95.60;;;;;;5112940;28;20167;-44
2021/05/05 08:32:33;;;;;;;1999.90;999.90;;;20.30;94.50;;;;;;5112777;28;20166;-43
2021/05/05 08:35:00;;;;;;;1999.90;999.90;;;20.60;92.70;;;;;;5112686;28;20171;-51
2021/05/05 08:37:27;;;;;;;1999.90;999.90;;;20.50;91.50;;;;;;5112684;28;20206;-49
2021/05/05 08:39:53;;;;;;;1999.90;999.90;;;19.90;92.50;;;;;;5112656;28;20250;-49
2021/05/05 08:42:20;;;;;;;1999.90;999.90;;;19.80;93.50;;;;;;5112225;28;20207;-49
2021/05/05 08:44:49;;;;;;;1999.90;999.90;;;20.00;93.80;;;;;;5112697;28;20163;-50
2021/05/05 08:47:17;;;;;;;1999.90;999.90;;;20.20;93.20;;;;;;5112905;28;20174;-53
2021/05/05 08:49:44;;;;;;;1999.90;999.90;;;20.30;93.00;;;;;;5116708;28;20182;-53
2021/05/05 08:52:11;;;;;;;1999.90;999.90;;;20.50;91.70;;;;;;5116618;28;20175;-46
2021/05/05 08:54:38;;;;;;;1999.90;999.90;;;20.50;90.90;;;;;;5116426;28;20207;-48
2021/05/05 08:57:05;;;;;;;1999.90;999.90;;;20.60;90.90;;;;;;5116504;28;20290;-52
2021/05/05 08:59:32;;;;;;;1999.90;999.90;;;20.70;90.80;;;;;;5116537;28;20179;-46
2021/05/05 09:02:00;;;;;;;1999.90;999.90;;;20.60;89.50;;;;;;5116719;28;20213;-50
2021/05/05 09:04:27;;;;;;;1999.90;999.90;;;20.60;90.00;;;;;;5116854;28;20236;-48
2021/05/05 09:06:59;;;;;;;1999.90;999.90;;;20.50;90.00;;;;;;5116565;28;20171;-55
2021/05/05 09:09:40;;;;;;;1999.90;999.90;;;20.60;90.60;;;;;;5117032;28;20164;-45
2021/05/05 09:12:26;;;;;;;1999.90;999.90;;;20.70;88.20;;;;;;5116784;28;20203;-49
2021/05/05 09:14:55;;;;;;;1999.90;999.90;;;20.90;88.10;;;;;;5116774;28;20171;-50
2021/05/05 09:17:36;;;;;;;1999.90;999.90;;;21.00;86.30;;;;;;5116627;28;20548;-52
2021/05/05 09:20:06;;;;;;;1999.90;999.90;;;21.00;85.10;;;;;;5116762;28;20158;-47
2021/05/05 09:22:58;;;;;;;1999.90;999.90;;;20.90;89.20;;;;;;5116931;28;20178;-51
2021/05/05 09:25:32;;;;;;;1999.90;999.90;;;21.00;89.50;;;;;;5116659;28;20247;-47
2021/05/05 09:28:18;;;;;;;1999.90;999.90;;;20.90;88.40;;;;;;5116709;28;20159;-46
2021/05/05 09:30:48;;;;;;;1999.90;999.90;;;21.00;88.00;;;;;;5116536;28;20626;-45
2021/05/05 09:33:34;;;;;;;1999.90;999.90;;;21.00;88.70;;;;;;5116512;28;20159;-47
2021/05/05 09:36:03;;;;;;;1999.90;999.90;;;20.60;90.00;;;;;;5116481;28;20649;-45
2021/05/05 09:38:49;;;;;;;1999.90;999.90;;;20.80;89.40;;;;;;5116517;28;20344;-50
2021/05/05 09:41:22;;;;;;;1999.90;999.90;;;20.90;88.60;;;;;;5116161;28;20162;-52
2021/05/05 09:43:50;;;;;;;1999.90;999.90;;;20.60;88.90;;;;;;5116084;28;20618;-47
2021/05/05 09:46:40;;;;;;;1999.90;999.90;;;20.80;88.40;;;;;;5116194;28;20205;-49
2021/05/05 09:49:26;;;;;;;1999.90;999.90;;;21.00;86.60;;;;;;5115954;28;20155;-45
2021/05/05 09:52:05;;;;;;;1999.90;999.90;;;21.30;85.30;;;;;;5116049;28;20519;-47
2021/05/05 09:54:35;;;;;;;1999.90;999.90;;;21.50;85.20;;;;;;5116114;28;20250;-48
2021/05/05 09:57:18;;;;;;;1999.90;999.90;;;22.10;82.80;;;;;;5115756;28;20211;-47
2021/05/05 09:59:55;;;;;;;1999.90;999.90;;;22.50;80.30;;;;;;5115372;28;20318;-48
2021/05/05 10:02:22;;;;;;;1999.90;999.90;;;22.60;78.50;;;;;;5115612;28;20178;-58
2021/05/05 10:04:59;;;;;;;1999.90;999.90;;;22.60;78.00;;;;;;5115900;28;20546;-48
2021/05/05 10:07:25;;;;;;;1999.90;999.90;;;22.30;79.10;;;;;;5115717;28;20167;-47
2021/05/05 10:09:52;;;;;;;1999.90;999.90;;;22.60;79.30;;;;;;5115905;28;20163;-56
2021/05/05 10:12:21;;;;;;;1999.90;999.90;;;22.80;77.40;;;;;;5115721;28;20166;-46
2021/05/05 10:14:51;;;;;;;1999.90;999.90;;;22.60;77.20;;;;;;5115526;28;20178;-49
2021/05/05 10:17:18;;;;;;;1999.90;999.90;;;22.70;77.10;;;;;;5115588;28;20195;-43
2021/05/05 10:19:48;;;;;;;1999.90;999.90;;;23.10;77.60;;;;;;5115494;28;20160;-53
2021/05/05 10:22:15;;;;;;;1999.90;999.90;;;23.50;73.60;;;;;;5097101;28;20220;-43
2021/05/05 10:24:48;;;;;;;1999.90;999.90;;;23.60;72.70;;;;;;5115339;28;20159;-47
2021/05/05 10:27:16;;;;;;;1999.90;999.90;;;23.40;72.50;;;;;;5115287;28;20159;-48
2021/05/05 10:29:45;;;;;;;1999.90;999.90;;;23.20;72.90;;;;;;5115228;28;20199;-43
2021/05/05 10:32:14;;;;;;;1999.90;999.90;;;23.10;73.20;;;;;;5115252;28;20660;-46
2021/05/05 10:34:50;;;;;;;1999.90;999.90;;;23.10;73.40;;;;;;5115171;28;20203;-59
2021/05/05 10:37:18;;;;;;;1999.90;999.90;;;23.20;72.60;;;;;;5115144;28;20203;-59
2021/05/05 10:39:45;;;;;;;1999.90;999.90;;;22.60;73.40;;;;;;5115223;28;20229;-43
2021/05/05 10:42:18;;;;;;;1999.90;999.90;;;22.60;74.50;;;;;;5114921;28;20181;-53
2021/05/05 10:44:51;;;;;;;1999.90;999.90;;;22.60;73.80;;;;;;5115112;28;20257;-45
2021/05/05 10:47:34;;;;;;;1999.90;999.90;;;22.40;74.10;;;;;;5115081;28;20147;-44
2021/05/05 10:52:29;;;;;;;1999.90;999.90;;;22.80;72.80;;;;;;5114879;28;20177;-45
2021/05/05 10:54:58;;;;;;;1999.90;999.90;;;22.80;71.10;;;;;;5114726;28;20225;-51
2021/05/05 10:57:26;;;;;;;1999.90;999.90;;;22.70;68.80;;;;;;5114571;28;20205;-56
2021/05/05 11:00:08;;;;;;;1999.90;999.90;;;22.50;71.10;;;;;;5114694;28;20170;-49
2021/05/05 11:02:47;;;;;;;1999.90;999.90;;;22.50;69.20;;;;;;5114648;28;20160;-56
2021/05/05 11:05:19;;;;;;;1999.90;999.90;;;22.60;70.20;;;;;;5114713;28;20155;-50
2021/05/05 11:08:05;;;;;;;1999.90;999.90;;;22.70;67.40;;;;;;5096430;28;20216;-54
2021/05/05 11:10:35;;;;;;;1999.90;999.90;;;22.80;69.10;;;;;;5113810;28;20173;-59
2021/05/05 11:13:24;;;;;;;1999.90;999.90;;;22.60;68.90;;;;;;5114510;28;20185;-56
2021/05/05 11:15:56;;;;;;;1999.90;999.90;;;22.50;70.10;;;;;;5114200;28;20518;-46
2021/05/05 11:18:35;;;;;;;1999.90;999.90;;;22.50;70.10;;;;;;5114201;28;20629;-49
2021/05/05 11:21:07;;;;;;;1999.90;999.90;;;22.80;69.10;;;;;;5114126;28;20200;-47
2021/05/05 11:23:44;;;;;;;1999.90;999.90;;;22.70;68.80;;;;;;5114229;28;20238;-54
2021/05/05 11:26:24;;;;;;;1999.90;999.90;;;22.60;68.10;;;;;;5114401;28;20183;-51
2021/05/05 11:28:57;;;;;;;1999.90;999.90;;;22.50;69.70;;;;;;5113657;28;20179;-47
2021/05/05 11:31:46;;;;;;;1999.90;999.90;;;22.80;69.20;;;;;;5113856;28;20172;-49
2021/05/05 11:34:25;;;;;;;1999.90;999.90;;;22.80;68.00;;;;;;5114034;28;20186;-55
2021/05/05 11:36:58;;;;;;;1999.90;999.90;;;22.50;70.40;;;;;;5095915;28;20367;-53
2021/05/05 11:39:36;;;;;;;1999.90;999.90;;;22.60;70.90;;;;;;5114007;28;20175;-54
2021/05/05 11:42:06;;;;;;;1999.90;999.90;;;22.60;70.50;;;;;;5114166;28;20612;-58
2021/05/05 11:44:34;;;;;;;1999.90;999.90;;;22.50;71.40;;;;;;5113881;28;20174;-58
2021/05/05 11:47:03;;;;;;;1999.90;999.90;;;22.30;73.00;;;;;;5113882;28;20619;-54
2021/05/05 11:49:32;;;;;;;1999.90;999.90;;;22.10;74.30;;;;;;5113901;28;20510;-45
2021/05/05 11:51:59;;;;;;;1999.90;999.90;;;22.10;75.10;;;;;;5113819;28;20178;-48
2021/05/05 11:54:31;;;;;;;1999.90;999.90;;;22.10;75.50;;;;;;5113635;28;20211;-59
2021/05/05 11:57:05;;;;;;;1999.90;999.90;;;22.00;75.60;;;;;;5113539;28;20202;-46
2021/05/05 11:59:32;;;;;;;1999.90;999.90;;;22.20;75.40;;;;;;5113572;28;20176;-57
2021/05/05 12:02:05;;;;;;;1999.90;999.90;;;22.40;74.20;;;;;;5113471;28;20171;-58
2021/05/05 12:04:40;;;;;;;1999.90;999.90;;;22.40;73.80;;;;;;5113423;28;20199;-59
2021/05/05 12:07:10;;;;;;;1999.90;999.90;;;22.30;74.00;;;;;;5113549;28;20209;-61
2021/05/05 12:09:42;;;;;;;1999.90;999.90;;;22.50;74.30;;;;;;5113552;28;20195;-48
2021/05/05 12:12:19;;;;;;;1999.90;999.90;;;22.50;73.50;;;;;;5113305;28;20236;-44
2021/05/05 12:14:49;;;;;;;1999.90;999.90;;;22.70;73.90;;;;;;5095271;28;20181;-40